Brattleboro, VT (05302)

7:59 PM EST on February 09, 2016 (GMT -0500)
West Bratt | | Change Station
CLOSE
Current Station
Personal Weather Station
Location: Vermont, VT
Elevation: 689 ft
Nearby Weather Stations

Elev 689 ft 42.87 °N, 72.60 °W | Updated 9 minutes ago

Overcast
Overcast
22.4 °F
Feels Like 22 °F
N
1.0
Wind Variable Wind from South
Gusts 1.0 mph

Today
High -- | Low -- °F
--% Chance of Precip.
Yesterday
High -- | Low -- °F
Precip. -- in
Pressure 29.58 in
Visibility 10.0 miles
Clouds Mostly Cloudy 8000 ft
Windchill 22 °F
Dew Point 19 °F
Humidity 87%
Rainfall 0.15 in
Snow Depth Not available.
6:56 AM 5:13 PM
Waxing Crescent, 3% visible
METAR KEEN 100055Z AUTO 00000KT 10SM BKN080 M05/M09 A2958 RMK AO1
Pressure 29.58 in
Visibility 10.0 miles
Clouds Mostly Cloudy 8000 ft
Windchill 22 °F
Dew Point 19 °F
Humidity 87%
Rainfall 0.15 in
Snow Depth Not available.
6:56 AM 5:13 PM
Waxing Crescent, 3% visible
METAR KEEN 100055Z AUTO 00000KT 10SM BKN080 M05/M09 A2958 RMK AO1

10-Day Weather Forecast

Almanac

Astronomy

Feb. 09, 2016 Rise Set
Actual Time
Civil Twilight
Nautical Twilight
Astronomical Twilight
Moon
Length of Visible Light
Length of Day
Tomorrow will be .
, % of the Moon is Illuminated

Today's Extremes

State Highs State Lows

Community

WunderPhotos

Upload Photos

1,891,752 photos uploaded!

WunderBlog® & News

Nearby

Air Quality

  Air Quality AQ Index Pollutant
Not available.

Snow Depth

Station Depth Elevation

Earthquake Activity

City Distance Mag. Time & Date
Minimum magnitude displayed is 2.5.

Coastal Water Temperatures

Place Temperature

Stations

Nearby Weather Stations

Station Location Temp. Windchill Dew Point Humidity Wind Precip. Elev Updated Type
                   

Watches & Warnings

There are currently no watches in effect.